Port Angeles, WA (98362)

3:40 PM PST on December 08, 2016 (GMT -0800)
Lake Farm Road | | Change Station
Active Advisory: Winter Weather Advisory

Elev 323 ft 48.11 °N, 123.41 °W | Updated 8 seconds ago

Partly Cloudy
Partly Cloudy
33.4 °F
Feels Like 33 °F
N
1.7
Wind Variable Wind from ESE

Today
High -- | Low -- °F
--% Chance of Precip.
Yesterday
High -- | Low -- °F
Precip. -- in
Pressure 29.98 in
Visibility 10.0 miles
Clouds Clear
Windchill 33 °F
Dew Point 22 °F
Humidity 62%
Rainfall 0.00 in
Snow Depth Not available.
7:51 AM 4:20 PM
Waxing Gibbous, 68% visible
METAR KCLM 082253Z AUTO 12011KT 10SM CLR 01/M06 A2997 RMK AO2 SLP151 T00111061
Pressure 29.98 in
Visibility 10.0 miles
Clouds Clear
Windchill 33 °F
Dew Point 22 °F
Humidity 62%
Rainfall 0.00 in
Snow Depth Not available.
7:51 AM 4:20 PM
Waxing Gibbous, 68% visible
METAR KCLM 082253Z AUTO 12011KT 10SM CLR 01/M06 A2997 RMK AO2 SLP151 T00111061

10-Day Weather Forecast

Almanac

Astronomy

Dec. 08, 2016 Rise Set
Actual Time
Civil Twilight
Nautical Twilight
Astronomical Twilight
Moon
Length of Visible Light
Length of Day
Tomorrow will be .
, % of the Moon is Illuminated

Today's Extremes

State Highs State Lows

Community

WunderPhotos

Upload Photos

1,956,277 photos uploaded!

WunderBlog® & News

Nearby

Air Quality

  Air Quality AQ Index Pollutant
Not available.

Snow Depth

Station Depth Elevation

Earthquake Activity

City Distance Mag. Time & Date
Minimum magnitude displayed is 2.5.

Coastal Water Temperatures

Place Temperature

Stations

Nearby Weather Stations

Station Location Temp. Windchill Dew Point Humidity Wind Precip. Elev Updated Type
                   

Watches & Warnings

Winter Weather Advisory
Issued: 12:25 PM PST Dec. 8, 2016 – National Weather Service

... Winter Weather Advisory remains in effect from 4 PM this
afternoon to 8 am PST Friday...

* timing... a weather system will move from south to north over
western Washington tonight. With cold air in place...
precipitation will start as snow tonight before changing to rain
by daybreak Friday.

* Accumulation... snowfall accumulations of 1 to 3 inches are
expected across most of The Lowlands.

* Main impact... travel will affected as roadway surface conditions
may become slippery.

Precautionary/preparedness actions...

People planning on travel late Thursday afternoon and night should
expect winter driving conditions.